Time;durP1;ratioP1;P1;durP2;ratioP2;P2;SDS_P1;SDS_P2;PMS_P1;PMS_P2;Temp;Humidity;BMP_temperature;BMP_pressure;BME280_temperature;BME280_humidity;BME280_pressure;Samples;Min_cycle;Max_cycle;Signal;HPM_P1;HPM_P2
2022/11/07 00:01:59;;;;;;;;;;;;;;;;;;7366916;19;1853;-59
2022/11/07 00:04:27;;;;;;;;;;;;;;;;;;7365235;19;1783;-58
2022/11/07 00:06:55;;;;;;;;;;;;;;;;;;7367024;19;824;-58
2022/11/07 00:09:24;;;;;;;;;;;;;;;;;;7364820;19;1360;-59
2022/11/07 00:11:52;;;;;;;;;;;;;;;;;;7365878;19;698;-56
2022/11/07 00:14:21;;;;;;;;;;;;;;;;;;7367038;19;1869;-60
2022/11/07 00:16:49;;;;;;;;;;;;;;;;;;7365922;19;799;-58
2022/11/07 00:19:17;;;;;;;;;;;;;;;;;;7364057;19;1274;-59
2022/11/07 00:21:45;;;;;;;;;;;;;;;;;;7363995;19;1860;-59
2022/11/07 00:24:13;;;;;;;;;;;;;;;;;;7365912;19;772;-57
2022/11/07 00:26:42;;;;;;;;;;;;;;;;;;7366069;19;768;-60
2022/11/07 00:29:10;;;;;;;;;;;;;;;;;;7367897;19;1798;-61
2022/11/07 00:31:38;;;;;;;;;;;;;;;;;;7361974;19;851;-57
2022/11/07 00:34:06;;;;;;;;;;;;;;;;;;7364408;19;869;-61
2022/11/07 00:36:34;;;;;;;;;;;;;;;;;;7365382;19;870;-60
2022/11/07 00:39:02;;;;;;;;;;;;;;;;;;7364217;19;791;-60
2022/11/07 00:41:30;;;;;;;;;;;;;;;;;;7362015;19;1856;-61
2022/11/07 00:43:59;;;;;;;;;;;;;;;;;;7368571;19;1753;-61
2022/11/07 00:46:27;;;;;;;;;;;;;;;;;;7364139;19;841;-56
2022/11/07 00:48:55;;;;;;;;;;;;;;;;;;7364488;19;884;-61
2022/11/07 00:51:23;;;;;;;;;;;;;;;;;;7367304;19;1266;-61
2022/11/07 00:53:51;;;;;;;;;;;;;;;;;;7371260;19;830;-61
2022/11/07 00:56:19;;;;;;;;;;;;;;;;;;7371718;19;771;-55
2022/11/07 00:58:47;;;;;;;;;;;;;;;;;;7374176;19;1594;-58
2022/11/07 01:01:15;;;;;;;;;;;;;;;;;;7368210;19;1855;-56
2022/11/07 01:06:24;;;;;;;;;;;;;;;;;;7371000;19;796;-59
2022/11/07 01:08:53;;;;;;;;;;;;;;;;;;7370722;19;802;-56
2022/11/07 01:11:21;;;;;;;;;;;;;;;;;;7369067;19;1318;-57
2022/11/07 01:13:49;;;;;;;;;;;;;;;;;;7374040;19;1806;-60
2022/11/07 01:16:17;;;;;;;;;;;;;;;;;;7371013;19;875;-60
2022/11/07 01:18:45;;;;;;;;;;;;;;;;;;7373753;19;1779;-59
2022/11/07 01:21:13;;;;;;;;;;;;;;;;;;7369486;19;1865;-59
2022/11/07 01:23:42;;;;;;;;;;;;;;;;;;7369888;19;796;-60
2022/11/07 01:26:10;;;;;;;;;;;;;;;;;;7371093;19;863;-62
2022/11/07 01:28:38;;;;;;;;;;;;;;;;;;7370157;19;829;-61
2022/11/07 01:31:06;;;;;;;;;;;;;;;;;;7369168;19;1278;-61
2022/11/07 01:33:34;;;;;;;;;;;;;;;;;;7372782;19;1878;-60
2022/11/07 01:36:02;;;;;;;;;;;;;;;;;;7371252;19;853;-60
2022/11/07 01:38:30;;;;;;;;;;;;;;;;;;7369280;19;778;-60
2022/11/07 01:43:39;;;;;;;;;;;;;;;;;;7370739;19;851;-60
2022/11/07 01:46:07;;;;;;;;;;;;;;;;;;7370356;19;807;-57
2022/11/07 01:48:36;;;;;;;;;;;;;;;;;;7372195;19;2043;-56
2022/11/07 01:51:04;;;;;;;;;;;;;;;;;;7368622;19;1329;-57
2022/11/07 01:53:33;;;;;;;;;;;;;;;;;;7370479;19;811;-56
2022/11/07 01:56:01;;;;;;;;;;;;;;;;;;7370120;19;843;-59
2022/11/07 01:58:29;;;;;;;;;;;;;;;;;;7369610;19;858;-57
2022/11/07 02:00:58;;;;;;;;;;;;;;;;;;7366429;19;1871;-59
2022/11/07 02:03:26;;;;;;;;;;;;;;;;;;7370533;19;1820;-61
2022/11/07 02:05:54;;;;;;;;;;;;;;;;;;7372174;19;1160;-58
2022/11/07 02:08:22;;;;;;;;;;;;;;;;;;7372647;19;1262;-59
2022/11/07 02:10:50;;;;;;;;;;;;;;;;;;7367728;19;1329;-60
2022/11/07 02:13:18;;;;;;;;;;;;;;;;;;7372899;19;1599;-60
2022/11/07 02:15:46;;;;;;;;;;;;;;;;;;7369535;19;889;-59
2022/11/07 02:18:14;;;;;;;;;;;;;;;;;;7369063;19;854;-59
2022/11/07 02:20:43;;;;;;;;;;;;;;;;;;7367776;19;1270;-60
2022/11/07 02:23:11;;;;;;;;;;;;;;;;;;7366640;19;1845;-60
2022/11/07 02:25:39;;;;;;;;;;;;;;;;;;7369181;19;877;-60
2022/11/07 02:28:07;;;;;;;;;;;;;;;;;;7371916;19;1818;-56
2022/11/07 02:30:35;;;;;;;;;;;;;;;;;;7367490;19;1262;-58
2022/11/07 02:33:04;;;;;;;;;;;;;;;;;;7369488;19;1803;-60
2022/11/07 02:35:32;;;;;;;;;;;;;;;;;;7369272;19;831;-60
2022/11/07 02:38:00;;;;;;;;;;;;;;;;;;7367458;19;799;-61
2022/11/07 02:40:28;;;;;;;;;;;;;;;;;;7367664;19;1808;-61
2022/11/07 02:42:56;;;;;;;;;;;;;;;;;;7369495;19;1880;-60
2022/11/07 02:45:24;;;;;;;;;;;;;;;;;;7369026;19;803;-60
2022/11/07 02:47:52;;;;;;;;;;;;;;;;;;7368235;19;813;-58
2022/11/07 02:50:20;;;;;;;;;;;;;;;;;;7367713;19;1262;-59
2022/11/07 02:52:49;;;;;;;;;;;;;;;;;;7370143;19;1785;-60
2022/11/07 02:55:17;;;;;;;;;;;;;;;;;;7367759;19;826;-58
2022/11/07 02:57:45;;;;;;;;;;;;;;;;;;7368955;19;806;-60
2022/11/07 03:00:13;;;;;;;;;;;;;;;;;;7368665;19;1273;-58
2022/11/07 03:02:45;;;;;;;;;;;;;;;;;;7368158;19;1842;-60
2022/11/07 03:05:13;;;;;;;;;;;;;;;;;;7371687;19;699;-60
2022/11/07 03:07:41;;;;;;;;;;;;;;;;;;7373977;19;1786;-59
2022/11/07 03:10:09;;;;;;;;;;;;;;;;;;7368954;19;1351;-58
2022/11/07 03:12:38;;;;;;;;;;;;;;;;;;7367443;19;728;-60
2022/11/07 03:15:06;;;;;;;;;;;;;;;;;;7370338;19;812;-57
2022/11/07 03:17:34;;;;;;;;;;;;;;;;;;7369951;19;802;-60
2022/11/07 03:20:02;;;;;;;;;;;;;;;;;;7368552;19;1274;-57
2022/11/07 03:22:31;;;;;;;;;;;;;;;;;;7370203;19;1849;-59
2022/11/07 03:24:59;;;;;;;;;;;;;;;;;;7367434;19;787;-57
2022/11/07 03:27:27;;;;;;;;;;;;;;;;;;7368240;19;854;-57
2022/11/07 03:29:55;;;;;;;;;;;;;;;;;;7370059;19;1765;-58
2022/11/07 03:32:24;;;;;;;;;;;;;;;;;;7369212;19;814;-59
2022/11/07 03:34:52;;;;;;;;;;;;;;;;;;7368647;19;854;-60
2022/11/07 03:37:20;;;;;;;;;;;;;;;;;;7370644;19;1768;-60
2022/11/07 03:39:48;;;;;;;;;;;;;;;;;;7366508;19;1329;-59
2022/11/07 03:42:16;;;;;;;;;;;;;;;;;;7366332;19;1853;-60
2022/11/07 03:44:44;;;;;;;;;;;;;;;;;;7368085;19;876;-58
2022/11/07 03:47:12;;;;;;;;;;;;;;;;;;7367961;19;780;-58
2022/11/07 03:49:41;;;;;;;;;;;;;;;;;;7364736;19;1306;-58
2022/11/07 03:52:09;;;;;;;;;;;;;;;;;;7369814;19;1758;-58
2022/11/07 03:54:37;;;;;;;;;;;;;;;;;;7367406;19;823;-53
2022/11/07 03:57:05;;;;;;;;;;;;;;;;;;7367291;19;854;-57
2022/11/07 03:59:33;;;;;;;;;;;;;;;;;;7365004;19;1278;-56
2022/11/07 04:02:01;;;;;;;;;;;;;;;;;;7368987;19;1841;-58
2022/11/07 04:04:29;;;;;;;;;;;;;;;;;;7368181;19;803;-58
2022/11/07 04:06:58;;;;;;;;;;;;;;;;;;7368141;19;867;-52
2022/11/07 04:09:26;;;;;;;;;;;;;;;;;;7366052;19;1318;-54
2022/11/07 04:17:21;;;;;;;;;;;;;;;;;;7368013;19;1863;-53
2022/11/07 04:19:50;;;;;;;;;;;;;;;;;;7364573;19;1274;-57
2022/11/07 04:22:18;;;;;;;;;;;;;;;;;;7364546;19;1817;-57
2022/11/07 04:24:46;;;;;;;;;;;;;;;;;;7368864;19;873;-59
2022/11/07 04:29:55;;;;;;;;;;;;;;;;;;7372842;19;1795;-57
2022/11/07 04:32:23;;;;;;;;;;;;;;;;;;7375570;19;1826;-61
2022/11/07 04:34:51;;;;;;;;;;;;;;;;;;7371597;19;849;-60
2022/11/07 04:37:19;;;;;;;;;;;;;;;;;;7372416;19;804;-60
2022/11/07 04:39:48;;;;;;;;;;;;;;;;;;7370958;19;1278;-60
2022/11/07 04:42:16;;;;;;;;;;;;;;;;;;7371533;19;1849;-60
2022/11/07 04:44:44;;;;;;;;;;;;;;;;;;7372219;19;910;-59
2022/11/07 04:47:12;;;;;;;;;;;;;;;;;;7375105;19;1803;-55
2022/11/07 04:49:40;;;;;;;;;;;;;;;;;;7370668;19;1274;-58
2022/11/07 04:52:08;;;;;;;;;;;;;;;;;;7372487;19;857;-56
2022/11/07 04:54:36;;;;;;;;;;;;;;;;;;7372222;19;925;-58
2022/11/07 04:57:04;;;;;;;;;;;;;;;;;;7372844;19;830;-59
2022/11/07 04:59:33;;;;;;;;;;;;;;;;;;7371295;19;1285;-53
2022/11/07 05:02:01;;;;;;;;;;;;;;;;;;7375311;19;1850;-53
2022/11/07 05:04:29;;;;;;;;;;;;;;;;;;7372683;19;803;-57
2022/11/07 05:06:57;;;;;;;;;;;;;;;;;;7372128;19;812;-52
2022/11/07 05:09:26;;;;;;;;;;;;;;;;;;7371117;19;1373;-57
2022/11/07 05:11:54;;;;;;;;;;;;;;;;;;7372089;19;775;-58
2022/11/07 05:14:22;;;;;;;;;;;;;;;;;;7371477;19;860;-55
2022/11/07 05:16:50;;;;;;;;;;;;;;;;;;7375582;19;1820;-59
2022/11/07 05:19:18;;;;;;;;;;;;;;;;;;7370315;19;1270;-60
2022/11/07 05:21:46;;;;;;;;;;;;;;;;;;7370704;19;1858;-59
2022/11/07 05:24:12;;;;;;;;;;;;;;;;;;7371276;19;804;-59
2022/11/07 05:26:40;;;;;;;;;;;;;;;;;;7371630;19;843;-60
2022/11/07 05:29:09;;;;;;;;;;;;;;;;;;7371153;19;804;-55
2022/11/07 05:31:37;;;;;;;;;;;;;;;;;;7372282;19;2076;-60
2022/11/07 05:34:05;;;;;;;;;;;;;;;;;;7371266;19;826;-58
2022/11/07 05:36:34;;;;;;;;;;;;;;;;;;7369080;19;763;-59
2022/11/07 05:39:02;;;;;;;;;;;;;;;;;;7370375;19;835;-60
2022/11/07 05:41:30;;;;;;;;;;;;;;;;;;7368853;19;1301;-57
2022/11/07 05:43:58;;;;;;;;;;;;;;;;;;7368661;19;1836;-57
2022/11/07 05:46:26;;;;;;;;;;;;;;;;;;7371885;19;1781;-60
2022/11/07 05:48:54;;;;;;;;;;;;;;;;;;7369942;19;890;-58
2022/11/07 05:51:22;;;;;;;;;;;;;;;;;;7370461;19;1747;-58
2022/11/07 05:53:50;;;;;;;;;;;;;;;;;;7369674;19;813;-57
2022/11/07 05:56:19;;;;;;;;;;;;;;;;;;7370361;19;837;-59
2022/11/07 05:58:47;;;;;;;;;;;;;;;;;;7369175;19;866;-58
2022/11/07 06:01:15;;;;;;;;;;;;;;;;;;7367745;19;1278;-57
2022/11/07 06:03:43;;;;;;;;;;;;;;;;;;7366804;19;1842;-59
2022/11/07 06:06:11;;;;;;;;;;;;;;;;;;7373071;19;1763;-53
2022/11/07 06:08:39;;;;;;;;;;;;;;;;;;7368923;19;795;-60
2022/11/07 06:11:07;;;;;;;;;;;;;;;;;;7367181;19;1325;-61
2022/11/07 06:13:36;;;;;;;;;;;;;;;;;;7367726;19;831;-59
2022/11/07 06:16:04;;;;;;;;;;;;;;;;;;7371462;19;1188;-59
2022/11/07 06:18:36;;;;;;;;;;;;;;;;;;7369291;19;754;-60
2022/11/07 06:21:04;;;;;;;;;;;;;;;;;;7369017;19;2184;-60
2022/11/07 06:23:32;;;;;;;;;;;;;;;;;;7368443;19;1853;-58
2022/11/07 06:26:01;;;;;;;;;;;;;;;;;;7369866;19;804;-60
2022/11/07 06:28:29;;;;;;;;;;;;;;;;;;7371245;19;1812;-57
2022/11/07 06:30:57;;;;;;;;;;;;;;;;;;7368531;19;1355;-58
2022/11/07 06:33:25;;;;;;;;;;;;;;;;;;7369203;19;837;-59
2022/11/07 06:35:53;;;;;;;;;;;;;;;;;;7369198;19;890;-56
2022/11/07 06:38:23;;;;;;;;;;;;;;;;;;7368541;19;743;-57
2022/11/07 06:40:51;;;;;;;;;;;;;;;;;;7368356;19;1326;-57
2022/11/07 06:43:19;;;;;;;;;;;;;;;;;;7368381;19;1854;-59
2022/11/07 06:45:47;;;;;;;;;;;;;;;;;;7367658;19;795;-60
2022/11/07 06:48:15;;;;;;;;;;;;;;;;;;7367589;19;826;-60
2022/11/07 06:50:43;;;;;;;;;;;;;;;;;;7366816;19;1282;-58
2022/11/07 06:53:12;;;;;;;;;;;;;;;;;;7368539;19;750;-58
2022/11/07 06:55:40;;;;;;;;;;;;;;;;;;7369149;19;846;-58
2022/11/07 06:58:08;;;;;;;;;;;;;;;;;;7369735;19;1786;-59
2022/11/07 07:00:36;;;;;;;;;;;;;;;;;;7366144;19;1318;-60
2022/11/07 07:03:04;;;;;;;;;;;;;;;;;;7368403;19;1819;-58
2022/11/07 07:05:32;;;;;;;;;;;;;;;;;;7370657;19;1783;-54
2022/11/07 07:08:01;;;;;;;;;;;;;;;;;;7368348;19;778;-56
2022/11/07 07:10:29;;;;;;;;;;;;;;;;;;7367197;19;1337;-62
2022/11/07 07:12:58;;;;;;;;;;;;;;;;;;7368722;19;847;-62
2022/11/07 07:15:26;;;;;;;;;;;;;;;;;;7369503;19;823;-58
2022/11/07 07:17:54;;;;;;;;;;;;;;;;;;7371582;19;1015;-62
2022/11/07 07:20:22;;;;;;;;;;;;;;;;;;7368547;19;2064;-61
2022/11/07 07:22:50;;;;;;;;;;;;;;;;;;7368328;19;1870;-58
2022/11/07 07:25:18;;;;;;;;;;;;;;;;;;7369232;19;1231;-57
2022/11/07 07:27:47;;;;;;;;;;;;;;;;;;7370030;19;850;-61
2022/11/07 07:30:15;;;;;;;;;;;;;;;;;;7367224;19;1345;-58
2022/11/07 07:32:43;;;;;;;;;;;;;;;;;;7369148;19;799;-57
2022/11/07 07:35:11;;;;;;;;;;;;;;;;;;7371137;19;1877;-58
2022/11/07 07:37:39;;;;;;;;;;;;;;;;;;7367822;19;799;-62
2022/11/07 07:40:07;;;;;;;;;;;;;;;;;;7366989;19;1899;-61
2022/11/07 07:42:36;;;;;;;;;;;;;;;;;;7367202;19;1866;-59
2022/11/07 07:45:04;;;;;;;;;;;;;;;;;;7367672;19;819;-58
2022/11/07 07:47:32;;;;;;;;;;;;;;;;;;7368398;19;790;-59
2022/11/07 07:50:00;;;;;;;;;;;;;;;;;;7367550;19;1778;-59
2022/11/07 07:52:28;;;;;;;;;;;;;;;;;;7367491;19;751;-61
2022/11/07 07:54:56;;;;;;;;;;;;;;;;;;7367866;19;992;-61
2022/11/07 07:57:24;;;;;;;;;;;;;;;;;;7366649;19;855;-59
2022/11/07 07:59:52;;;;;;;;;;;;;;;;;;7363063;19;1273;-61
2022/11/07 08:02:21;;;;;;;;;;;;;;;;;;7366574;19;865;-61
2022/11/07 08:04:49;;;;;;;;;;;;;;;;;;7365367;19;1851;-62
2022/11/07 08:07:17;;;;;;;;;;;;;;;;;;7364638;19;823;-60
2022/11/07 08:09:45;;;;;;;;;;;;;;;;;;7365769;19;1215;-61
2022/11/07 08:12:13;;;;;;;;;;;;;;;;;;7364896;19;873;-60
2022/11/07 08:14:41;;;;;;;;;;;;;;;;;;7368379;19;1815;-61
2022/11/07 08:17:09;;;;;;;;;;;;;;;;;;7366550;19;838;-63
2022/11/07 08:19:38;;;;;;;;;;;;;;;;;;7365456;19;1341;-61
2022/11/07 08:22:06;;;;;;;;;;;;;;;;;;7369691;19;1797;-59
2022/11/07 08:24:34;;;;;;;;;;;;;;;;;;7363292;19;1842;-64
2022/11/07 08:27:02;;;;;;;;;;;;;;;;;;7366187;19;755;-61
2022/11/07 08:29:30;;;;;;;;;;;;;;;;;;7365584;19;1262;-60
2022/11/07 08:31:58;;;;;;;;;;;;;;;;;;7364649;19;825;-59
2022/11/07 08:34:27;;;;;;;;;;;;;;;;;;7366216;19;830;-60
2022/11/07 08:36:55;;;;;;;;;;;;;;;;;;7369856;19;1826;-62
2022/11/07 08:39:23;;;;;;;;;;;;;;;;;;7365289;19;1368;-60
2022/11/07 08:41:51;;;;;;;;;;;;;;;;;;7365392;19;807;-62
2022/11/07 08:44:19;;;;;;;;;;;;;;;;;;7364113;19;2198;-62
2022/11/07 08:46:47;;;;;;;;;;;;;;;;;;7365680;19;814;-57
2022/11/07 08:49:15;;;;;;;;;;;;;;;;;;7364531;19;768;-57
2022/11/07 08:51:44;;;;;;;;;;;;;;;;;;7365331;19;832;-58
2022/11/07 08:54:12;;;;;;;;;;;;;;;;;;7365031;19;881;-58
2022/11/07 08:56:40;;;;;;;;;;;;;;;;;;7365026;19;973;-58
2022/11/07 08:59:08;;;;;;;;;;;;;;;;;;7364676;19;1795;-59
2022/11/07 09:01:36;;;;;;;;;;;;;;;;;;7361631;19;1274;-62
2022/11/07 09:04:05;;;;;;;;;;;;;;;;;;7364220;19;1846;-65
2022/11/07 09:06:33;;;;;;;;;;;;;;;;;;7364958;19;812;-63
2022/11/07 09:09:02;;;;;;;;;;;;;;;;;;7364117;19;966;-62
2022/11/07 09:11:30;;;;;;;;;;;;;;;;;;7365667;19;1826;-60
2022/11/07 09:13:58;;;;;;;;;;;;;;;;;;7371841;19;854;-60
2022/11/07 09:16:26;;;;;;;;;;;;;;;;;;7372397;19;885;-61
2022/11/07 09:18:54;;;;;;;;;;;;;;;;;;7374117;19;1792;-58
2022/11/07 09:21:22;;;;;;;;;;;;;;;;;;7370124;19;2049;-57
2022/11/07 09:23:51;;;;;;;;;;;;;;;;;;7369994;19;1838;-58
2022/11/07 09:26:19;;;;;;;;;;;;;;;;;;7371236;19;846;-61
2022/11/07 09:28:47;;;;;;;;;;;;;;;;;;7371114;19;842;-59
2022/11/07 09:31:15;;;;;;;;;;;;;;;;;;7370127;19;1307;-64
2022/11/07 09:33:43;;;;;;;;;;;;;;;;;;7371961;19;818;-64
2022/11/07 09:36:11;;;;;;;;;;;;;;;;;;7372131;19;1501;-61
2022/11/07 09:38:40;;;;;;;;;;;;;;;;;;7374216;19;946;-62
2022/11/07 09:41:08;;;;;;;;;;;;;;;;;;7373195;19;1321;-57
2022/11/07 09:43:38;;;;;;;;;;;;;;;;;;7374370;19;1875;-62
2022/11/07 09:46:06;;;;;;;;;;;;;;;;;;7374663;19;764;-60
2022/11/07 09:48:34;;;;;;;;;;;;;;;;;;7375441;19;1013;-61
2022/11/07 09:51:02;;;;;;;;;;;;;;;;;;7372319;19;1851;-56
2022/11/07 09:53:31;;;;;;;;;;;;;;;;;;7372671;19;767;-60
2022/11/07 09:55:59;;;;;;;;;;;;;;;;;;7372394;19;865;-55
2022/11/07 09:58:27;;;;;;;;;;;;;;;;;;7371163;19;799;-62
2022/11/07 10:00:55;;;;;;;;;;;;;;;;;;7372482;19;1321;-58
2022/11/07 10:03:23;;;;;;;;;;;;;;;;;;7369983;19;1883;-61
2022/11/07 10:05:52;;;;;;;;;;;;;;;;;;7370830;19;1799;-62
2022/11/07 10:08:20;;;;;;;;;;;;;;;;;;7369795;19;835;-62
2022/11/07 10:10:48;;;;;;;;;;;;;;;;;;7369379;19;1321;-58
2022/11/07 10:13:16;;;;;;;;;;;;;;;;;;7370096;19;863;-61
2022/11/07 10:15:44;;;;;;;;;;;;;;;;;;7370766;19;1769;-63
2022/11/07 10:18:12;;;;;;;;;;;;;;;;;;7372456;19;819;-60
2022/11/07 10:20:40;;;;;;;;;;;;;;;;;;7369975;19;1274;-64
2022/11/07 10:23:09;;;;;;;;;;;;;;;;;;7372590;19;1138;-57
2022/11/07 10:25:37;;;;;;;;;;;;;;;;;;7375868;19;827;-62
2022/11/07 10:28:05;;;;;;;;;;;;;;;;;;7373605;19;861;-63
2022/11/07 10:30:33;;;;;;;;;;;;;;;;;;7371831;19;2211;-62
2022/11/07 10:33:01;;;;;;;;;;;;;;;;;;7372619;19;819;-58
2022/11/07 10:35:29;;;;;;;;;;;;;;;;;;7371789;19;776;-62
2022/11/07 10:37:57;;;;;;;;;;;;;;;;;;7370400;19;816;-63
2022/11/07 10:40:27;;;;;;;;;;;;;;;;;;7369637;19;1814;-62
2022/11/07 10:42:55;;;;;;;;;;;;;;;;;;7372969;19;1867;-62
2022/11/07 10:45:23;;;;;;;;;;;;;;;;;;7369504;19;1841;-62
2022/11/07 10:47:51;;;;;;;;;;;;;;;;;;7374591;19;1678;-61
2022/11/07 10:50:19;;;;;;;;;;;;;;;;;;7369551;19;1333;-63
2022/11/07 10:52:49;;;;;;;;;;;;;;;;;;7371402;19;1774;-63
2022/11/07 10:55:17;;;;;;;;;;;;;;;;;;7370738;19;763;-58
2022/11/07 10:57:46;;;;;;;;;;;;;;;;;;7373524;19;1774;-63
2022/11/07 11:00:14;;;;;;;;;;;;;;;;;;7372971;19;1800;-62
2022/11/07 11:02:42;;;;;;;;;;;;;;;;;;7370998;19;878;-60
2022/11/07 11:05:10;;;;;;;;;;;;;;;;;;7366393;19;1845;-62
2022/11/07 11:07:38;;;;;;;;;;;;;;;;;;7366347;19;804;-64
2022/11/07 11:10:07;;;;;;;;;;;;;;;;;;7367158;19;1269;-61
2022/11/07 11:12:35;;;;;;;;;;;;;;;;;;7368734;19;811;-61
2022/11/07 11:15:03;;;;;;;;;;;;;;;;;;7372633;19;2033;-60
2022/11/07 11:17:32;;;;;;;;;;;;;;;;;;7367674;19;869;-60
2022/11/07 11:20:00;;;;;;;;;;;;;;;;;;7370205;19;1892;-61
2022/11/07 11:22:29;;;;;;;;;;;;;;;;;;7370560;19;2000;-59
2022/11/07 11:24:57;;;;;;;;;;;;;;;;;;7365002;19;1838;-59
2022/11/07 11:27:25;;;;;;;;;;;;;;;;;;7368690;19;830;-60
2022/11/07 11:29:54;;;;;;;;;;;;;;;;;;7366377;19;1371;-59
2022/11/07 11:32:22;;;;;;;;;;;;;;;;;;7367345;19;854;-60
2022/11/07 11:34:50;;;;;;;;;;;;;;;;;;7366460;19;2034;-60
2022/11/07 11:37:18;;;;;;;;;;;;;;;;;;7369545;19;871;-58
2022/11/07 11:39:46;;;;;;;;;;;;;;;;;;7365442;19;1325;-58
2022/11/07 11:42:14;;;;;;;;;;;;;;;;;;7367690;19;847;-61
2022/11/07 11:44:43;;;;;;;;;;;;;;;;;;7367273;19;1854;-58
2022/11/07 11:47:11;;;;;;;;;;;;;;;;;;7367258;19;866;-60
2022/11/07 11:49:39;;;;;;;;;;;;;;;;;;7366728;19;1238;-60
2022/11/07 11:52:07;;;;;;;;;;;;;;;;;;7366945;19;1781;-60
2022/11/07 11:54:38;;;;;;;;;;;;;;;;;;7363607;19;1357;-58
2022/11/07 11:57:06;;;;;;;;;;;;;;;;;;7367325;19;1812;-61
2022/11/07 11:59:34;;;;;;;;;;;;;;;;;;7368948;19;1446;-63
2022/11/07 12:02:03;;;;;;;;;;;;;;;;;;7367677;19;665;-61
2022/11/07 12:04:31;;;;;;;;;;;;;;;;;;7364536;19;1842;-62
2022/11/07 12:06:59;;;;;;;;;;;;;;;;;;7368906;19;1807;-62
2022/11/07 12:09:27;;;;;;;;;;;;;;;;;;7370214;19;1756;-61
2022/11/07 12:11:55;;;;;;;;;;;;;;;;;;7368860;19;1815;-62
2022/11/07 12:14:23;;;;;;;;;;;;;;;;;;7366410;19;803;-57
2022/11/07 12:16:51;;;;;;;;;;;;;;;;;;7368707;19;1810;-61
2022/11/07 12:19:20;;;;;;;;;;;;;;;;;;7365223;19;1768;-63
2022/11/07 12:21:48;;;;;;;;;;;;;;;;;;7370390;19;1927;-63
2022/11/07 12:24:16;;;;;;;;;;;;;;;;;;7370220;19;1857;-61
2022/11/07 12:26:44;;;;;;;;;;;;;;;;;;7368647;19;1992;-60
2022/11/07 12:29:12;;;;;;;;;;;;;;;;;;7365402;19;803;-62
2022/11/07 12:31:41;;;;;;;;;;;;;;;;;;7362891;19;1313;-60
2022/11/07 12:34:09;;;;;;;;;;;;;;;;;;7367887;19;1787;-59
2022/11/07 12:36:38;;;;;;;;;;;;;;;;;;7366669;19;799;-58
2022/11/07 12:39:06;;;;;;;;;;;;;;;;;;7368529;19;1804;-63
2022/11/07 12:41:34;;;;;;;;;;;;;;;;;;7362824;19;1305;-63
2022/11/07 12:44:03;;;;;;;;;;;;;;;;;;7365871;19;1845;-61
2022/11/07 12:46:31;;;;;;;;;;;;;;;;;;7372511;19;2097;-62
2022/11/07 12:48:59;;;;;;;;;;;;;;;;;;7371185;19;885;-57
2022/11/07 12:51:28;;;;;;;;;;;;;;;;;;7371989;19;1807;-60
2022/11/07 12:53:56;;;;;;;;;;;;;;;;;;7372476;19;816;-62
2022/11/07 12:56:24;;;;;;;;;;;;;;;;;;7373676;19;1777;-60
2022/11/07 12:58:52;;;;;;;;;;;;;;;;;;7371209;19;813;-60
2022/11/07 13:01:20;;;;;;;;;;;;;;;;;;7373156;19;1842;-62
2022/11/07 13:03:48;;;;;;;;;;;;;;;;;;7372179;19;871;-57
2022/11/07 13:06:17;;;;;;;;;;;;;;;;;;7369820;19;1881;-60
2022/11/07 13:08:45;;;;;;;;;;;;;;;;;;7371199;19;847;-60
2022/11/07 13:11:13;;;;;;;;;;;;;;;;;;7369599;19;1356;-60
2022/11/07 13:13:41;;;;;;;;;;;;;;;;;;7371650;19;2067;-57
2022/11/07 13:16:10;;;;;;;;;;;;;;;;;;7374885;19;1791;-61
2022/11/07 13:18:38;;;;;;;;;;;;;;;;;;7369792;19;696;-58
2022/11/07 13:21:06;;;;;;;;;;;;;;;;;;7368887;19;1348;-60
2022/11/07 13:23:34;;;;;;;;;;;;;;;;;;7374234;19;1812;-60
2022/11/07 13:26:02;;;;;;;;;;;;;;;;;;7369672;19;1834;-61
2022/11/07 13:28:30;;;;;;;;;;;;;;;;;;7370874;19;843;-59
2022/11/07 13:30:58;;;;;;;;;;;;;;;;;;7370487;19;1286;-61
2022/11/07 13:33:27;;;;;;;;;;;;;;;;;;7372442;19;846;-59
2022/11/07 13:35:55;;;;;;;;;;;;;;;;;;7371247;19;889;-61
2022/11/07 13:38:24;;;;;;;;;;;;;;;;;;7370302;19;803;-61
2022/11/07 13:40:52;;;;;;;;;;;;;;;;;;7371401;19;1826;-60
2022/11/07 13:43:20;;;;;;;;;;;;;;;;;;7373132;19;1838;-63
2022/11/07 13:45:49;;;;;;;;;;;;;;;;;;7373919;19;1856;-60
2022/11/07 13:48:17;;;;;;;;;;;;;;;;;;7370675;19;886;-62
2022/11/07 13:50:45;;;;;;;;;;;;;;;;;;7370094;19;1644;-61
2022/11/07 13:53:13;;;;;;;;;;;;;;;;;;7376613;19;1841;-60
2022/11/07 13:55:41;;;;;;;;;;;;;;;;;;7373072;19;866;-59
2022/11/07 13:58:09;;;;;;;;;;;;;;;;;;7371770;19;871;-62
2022/11/07 14:00:38;;;;;;;;;;;;;;;;;;7373011;19;1333;-60
2022/11/07 14:03:06;;;;;;;;;;;;;;;;;;7370449;19;818;-60
2022/11/07 14:05:35;;;;;;;;;;;;;;;;;;7369669;19;2048;-59
2022/11/07 14:08:03;;;;;;;;;;;;;;;;;;7372772;19;1553;-61
2022/11/07 14:10:31;;;;;;;;;;;;;;;;;;7367606;19;1356;-60
2022/11/07 14:12:59;;;;;;;;;;;;;;;;;;7371685;19;1687;-60
2022/11/07 14:15:28;;;;;;;;;;;;;;;;;;7369896;19;808;-61
2022/11/07 14:17:56;;;;;;;;;;;;;;;;;;7373028;19;1229;-60
2022/11/07 14:20:24;;;;;;;;;;;;;;;;;;7368767;19;1328;-60
2022/11/07 14:22:52;;;;;;;;;;;;;;;;;;7369885;19;776;-61
2022/11/07 14:25:20;;;;;;;;;;;;;;;;;;7372616;19;1837;-57
2022/11/07 14:27:49;;;;;;;;;;;;;;;;;;7370997;19;1836;-62
2022/11/07 14:30:17;;;;;;;;;;;;;;;;;;7370048;19;1254;-56
2022/11/07 14:32:45;;;;;;;;;;;;;;;;;;7375076;19;1769;-61
2022/11/07 14:35:13;;;;;;;;;;;;;;;;;;7372215;19;803;-59
2022/11/07 14:37:41;;;;;;;;;;;;;;;;;;7370936;19;751;-62
2022/11/07 14:40:09;;;;;;;;;;;;;;;;;;7371540;19;1385;-59
2022/11/07 14:42:37;;;;;;;;;;;;;;;;;;7370379;19;859;-61
2022/11/07 14:45:06;;;;;;;;;;;;;;;;;;7369555;19;1865;-66
2022/11/07 14:47:34;;;;;;;;;;;;;;;;;;7368877;19;811;-63
2022/11/07 14:50:02;;;;;;;;;;;;;;;;;;7368362;19;1295;-64
2022/11/07 14:52:30;;;;;;;;;;;;;;;;;;7370526;19;1905;-63
2022/11/07 14:54:59;;;;;;;;;;;;;;;;;;7367870;19;854;-57
2022/11/07 14:57:27;;;;;;;;;;;;;;;;;;7369418;19;817;-55
2022/11/07 14:59:55;;;;;;;;;;;;;;;;;;7367174;19;1351;-59
2022/11/07 15:02:23;;;;;;;;;;;;;;;;;;7368866;19;747;-62
2022/11/07 15:04:52;;;;;;;;;;;;;;;;;;7368528;19;1838;-62
2022/11/07 15:07:20;;;;;;;;;;;;;;;;;;7368783;19;802;-62
2022/11/07 15:09:48;;;;;;;;;;;;;;;;;;7363724;19;1290;-61
2022/11/07 15:12:16;;;;;;;;;;;;;;;;;;7367585;19;787;-60
2022/11/07 15:14:45;;;;;;;;;;;;;;;;;;7367958;19;1770;-64
2022/11/07 15:17:13;;;;;;;;;;;;;;;;;;7368191;19;795;-64
2022/11/07 15:19:41;;;;;;;;;;;;;;;;;;7367742;19;1275;-62
2022/11/07 15:22:09;;;;;;;;;;;;;;;;;;7367195;19;785;-60
2022/11/07 15:24:37;;;;;;;;;;;;;;;;;;7370932;19;1821;-59
2022/11/07 15:27:05;;;;;;;;;;;;;;;;;;7368800;19;1865;-59
2022/11/07 15:29:34;;;;;;;;;;;;;;;;;;7368246;19;1318;-60
2022/11/07 15:32:02;;;;;;;;;;;;;;;;;;7367926;19;894;-57
2022/11/07 15:34:31;;;;;;;;;;;;;;;;;;7372096;19;1565;-54
2022/11/07 15:36:59;;;;;;;;;;;;;;;;;;7368432;19;820;-54
2022/11/07 15:39:27;;;;;;;;;;;;;;;;;;7367666;19;1250;-59
2022/11/07 15:41:55;;;;;;;;;;;;;;;;;;7367391;19;882;-61
2022/11/07 15:44:23;;;;;;;;;;;;;;;;;;7365745;19;824;-58
2022/11/07 15:46:51;;;;;;;;;;;;;;;;;;7364622;19;1879;-63
2022/11/07 15:49:19;;;;;;;;;;;;;;;;;;7367485;19;834;-62
2022/11/07 15:51:47;;;;;;;;;;;;;;;;;;7368596;19;891;-57
2022/11/07 15:54:17;;;;;;;;;;;;;;;;;;7367683;19;817;-60
2022/11/07 15:56:45;;;;;;;;;;;;;;;;;;7370294;19;1879;-58
2022/11/07 15:59:13;;;;;;;;;;;;;;;;;;7367203;19;889;-62
2022/11/07 16:01:42;;;;;;;;;;;;;;;;;;7363412;19;1298;-61
2022/11/07 16:04:10;;;;;;;;;;;;;;;;;;7369096;19;1820;-62
2022/11/07 16:06:38;;;;;;;;;;;;;;;;;;7369143;19;1854;-60
2022/11/07 16:09:06;;;;;;;;;;;;;;;;;;7371776;19;806;-61
2022/11/07 16:11:34;;;;;;;;;;;;;;;;;;7369587;19;1911;-62
2022/11/07 16:14:03;;;;;;;;;;;;;;;;;;7376239;19;1814;-62
2022/11/07 16:16:31;;;;;;;;;;;;;;;;;;7372454;19;780;-60
2022/11/07 16:19:00;;;;;;;;;;;;;;;;;;7369774;19;1787;-61
2022/11/07 16:21:28;;;;;;;;;;;;;;;;;;7372060;19;1356;-61
2022/11/07 16:23:56;;;;;;;;;;;;;;;;;;7375239;19;815;-62
2022/11/07 16:26:24;;;;;;;;;;;;;;;;;;7372679;19;1849;-61
2022/11/07 16:28:52;;;;;;;;;;;;;;;;;;7373467;19;746;-58
2022/11/07 16:31:20;;;;;;;;;;;;;;;;;;7373083;19;1348;-63
2022/11/07 16:33:48;;;;;;;;;;;;;;;;;;7378576;19;1852;-62
2022/11/07 16:36:16;;;;;;;;;;;;;;;;;;7373440;19;893;-63
2022/11/07 16:38:45;;;;;;;;;;;;;;;;;;7372691;19;838;-61
2022/11/07 16:41:13;;;;;;;;;;;;;;;;;;7372427;19;1234;-62
2022/11/07 16:43:41;;;;;;;;;;;;;;;;;;7373601;19;792;-63
2022/11/07 16:46:09;;;;;;;;;;;;;;;;;;7376930;19;1844;-62
2022/11/07 16:48:37;;;;;;;;;;;;;;;;;;7372933;19;773;-61
2022/11/07 16:51:05;;;;;;;;;;;;;;;;;;7371476;19;1333;-61
2022/11/07 16:53:33;;;;;;;;;;;;;;;;;;7370574;19;801;-61
2022/11/07 16:56:02;;;;;;;;;;;;;;;;;;7375768;19;875;-61
2022/11/07 16:58:30;;;;;;;;;;;;;;;;;;7369965;19;808;-62
2022/11/07 17:00:58;;;;;;;;;;;;;;;;;;7370600;19;1274;-62
2022/11/07 17:03:26;;;;;;;;;;;;;;;;;;7370599;19;883;-61
2022/11/07 17:05:54;;;;;;;;;;;;;;;;;;7371221;19;1846;-61
2022/11/07 17:08:22;;;;;;;;;;;;;;;;;;7373907;19;1494;-61
2022/11/07 17:10:51;;;;;;;;;;;;;;;;;;7374032;19;1800;-60
2022/11/07 17:13:19;;;;;;;;;;;;;;;;;;7371793;19;1833;-59
2022/11/07 17:15:47;;;;;;;;;;;;;;;;;;7370930;19;802;-61
2022/11/07 17:18:15;;;;;;;;;;;;;;;;;;7370457;19;771;-59
2022/11/07 17:20:43;;;;;;;;;;;;;;;;;;7369342;19;1337;-56
2022/11/07 17:23:11;;;;;;;;;;;;;;;;;;7370846;19;851;-59
2022/11/07 17:25:40;;;;;;;;;;;;;;;;;;7370053;19;1850;-60
2022/11/07 17:28:08;;;;;;;;;;;;;;;;;;7371033;19;1789;-60
2022/11/07 17:30:36;;;;;;;;;;;;;;;;;;7370242;19;1317;-61